AirNav   Duncan Aviation - Near you to keep you flying
 
 866 users online  

KMQJ Indianapolis Regional Airport
Indianapolis, Indiana, USA

GOING TO INDIANAPOLIS?


FAA INFORMATION EFFECTIVE 01 DECEMBER 2022

Location

FAA Identifier: MQJ
Lat/Long: 39-50-35.2960N 085-53-51.8480W
39-50.588267N 085-53.864133W
39.8431378,-85.8977356
(estimated)
Elevation: 862.3 ft. / 262.8 m (surveyed)
Variation: 02W (1985)
From city: 12 miles E of INDIANAPOLIS, IN
Time zone: UTC -5 (UTC -4 during Daylight Saving Time)
Zip code: 46140

Airport Operations

Airport use: Open to the public
Activation date: 11/1977
Control tower: no
ARTCC: INDIANAPOLIS CENTER
FSS: TERRE HAUTE FLIGHT SERVICE STATION
NOTAMs facility: HUF (NOTAM-D service available)
Attendance: 0600-2200
AVBL AFT HR - 317-335-3371.
Wind indicator: lighted
Segmented circle: yes
LCTD AT MID-FIELD WIND SOCK.
Lights: DUSK-DAWN; ACTVT MALSR RWY 25; HIRL RWY 07/25 - CTAF.
Beacon: white-green (lighted land airport)
Operates sunset to sunrise.

Airport Communications

CTAF/UNICOM: 122.975
WX AWOS-3: 124.175 (317-335-3037)
INDIANAPOLIS APPROACH: 127.15
INDIANAPOLIS DEPARTURE: 127.15
CLEARANCE DELIVERY: 119.25
WX AWOS-3 at UMP (9 nm NW): 119.375 (317-842-3911)
WX AWOS-3 at 8A4 (12 nm W): 135.525 (317-955-3160)
WX AWOS-3P at HFY (16 nm SW): 118.525 (317-882-5862)
WX ASOS at GEZ (16 nm S): 121.55 (317-398-0246)
WX ASOS at EYE (18 nm W): 121.575 (317-329-1754)
WX AWOS-3PT at TYQ (20 nm NW): 120.725 (317-769-3154)
WX ASOS at IND (20 nm W): PHONE 317-241-0348

Nearby radio navigation aids

VOR radial/distance  VOR name  Freq  Var
SHBr344/13.1SHELBYVILLE VOR/DME116.1501E
VHPr084/21.7BRICKYARD VORTAC116.3001E
MIEr227/33.1MUNCIE VOR/DME114.4003W

 
NDB name  Hdg/Dist  Freq  Var  ID
METROPOLITAN132/9.033803WUMP ..- -- .--.
NEW CASTLE271/26.838506WUWL ..- .-- .-..

Airport Services

Fuel available: 100LL JET-A JET-A+
Parking: hangars and tiedowns
Airframe service: MAJOR
Powerplant service: MAJOR
Bottled oxygen: HIGH/LOW

Runway Information

Runway 7/25

Dimensions: 6005 x 100 ft. / 1830 x 30 m
Surface: asphalt/grooved, in excellent condition
Weight bearing capacity: 
Single wheel: 30.0
Double wheel: 75.0
Runway edge lights: high intensity
RUNWAY 7  RUNWAY 25
Latitude: 39-50.195067N39-50.533058N
Longitude: 085-54.670513W085-53.464878W
Elevation: 862.2 ft.858.0 ft.
Traffic pattern: leftleft
Runway heading: 072 magnetic, 070 true252 magnetic, 250 true
Markings: nonprecision, in good conditionprecision, in good condition
Visual slope indicator: 4-light PAPI on left (3.00 degrees glide path)4-light PAPI on left (3.00 degrees glide path)
Approach lights: MALSR: 1,400 foot medium intensity approach lighting system with runway alignment indicator lights
Runway end identifier lights: yes
Touchdown point: yes, no lightsyes, no lights
Instrument approach: ILS

Runway 16/34

Dimensions: 3902 x 75 ft. / 1189 x 23 m
Surface: concrete, in good condition
Weight bearing capacity: 
Single wheel: 12.5
Runway edge lights: medium intensity
RUNWAY 16  RUNWAY 34
Latitude: 39-51.235263N39-50.631282N
Longitude: 085-53.693138W085-53.408412W
Elevation: 857.7 ft.856.9 ft.
Traffic pattern: leftleft
Runway heading: 162 magnetic, 160 true342 magnetic, 340 true
Markings: nonprecision, in good conditionnonprecision, in good condition
Visual slope indicator: 2-light PAPI on left (3.00 degrees glide path)2-light PAPI on left (3.00 degrees glide path)
Runway end identifier lights: yes
Touchdown point: yes, no lightsyes, no lights

Airport Ownership and Management from official FAA records

Ownership: Publicly-owned
Owner: INDIANAPOLIS ARPT AUTHORITY
7800 COL. H. WEIR COOK MEMORIAL DR.
INDIANAPOLIS, IN 46241
Phone 317-487-5022
Manager: KEITH BERLEN
7800 COL. H. WEIR COOK MEMORIAL DR.
INDIANAPOLIS, IN 46241
Phone 317-487-5022

Airport Operational Statistics

Aircraft based on the field: 150
Single engine airplanes: 115
Multi engine airplanes: 14
Jet airplanes: 19
Helicopters: 1
Ultralights: 1
    
Aircraft operations: avg 130/day *
50% transient general aviation
34% local general aviation
16% air taxi
* for 12-month period ending 31 December 2019

Additional Remarks

A58-07 CROPS 250 FT S OF RWY END.
A58-16 CROPS 155 FT FM & 175 FT W OF RWY END.
RWY 16/34 & TWY B NOT AVBL TO ACR WITH MORE THAN 30 PAX SEATS.
FOR FUEL & SVC - 131.5
FOR CD CTC INDIANAPOLIS APCH AT 317-227-5743.

Instrument Procedures

NOTE: All procedures below are presented as PDF files. If you need a reader for these files, you should download the free Adobe Reader.

NOT FOR NAVIGATION. Please procure official charts for flight.
FAA instrument procedures published for use from 01 December 2022 at 0901Z to 29 December 2022 at 0900z.

 
STARs - Standard Terminal Arrivals
CLANG SEVEN   download (237KB)
RACYR SIX   download (227KB)
 
IAPs - Instrument Approach Procedures
ILS OR LOC RWY 25   download (238KB)
RNAV (GPS) RWY 16   download (233KB)
RNAV (GPS) RWY 25   download (274KB)
RNAV (GPS) RWY 34   download (211KB)
VOR RWY 34   download (215KB)
NOTE: Special Alternate Minimums apply   download (60KB)
 
Departure Procedures
DAWNN ONE   2 pages: [1] [2] (299KB)
HOOSIER FIVE   download (228KB)
MAREO FIVE   download (211KB)
MEARZ SEVEN   2 pages: [1] [2] (289KB)
ROCKY ONE   download (239KB)
NOTE: Special Take-Off Minimums/Departure Procedures apply   download (164KB)

Other nearby airports with instrument procedures:

KUMP - Indianapolis Metro Airport (9 nm NW)
8A4 - Indianapolis Downtown Heliport (12 nm W)
KHFY - Indy South Greenwood Airport (16 nm SW)
KGEZ - Shelbyville Municipal Airport (16 nm S)
KEYE - Eagle Creek Airpark (18 nm W)
KTYQ - Indianapolis Executive Airport (20 nm NW)
KIND - Indianapolis International Airport (20 nm W)
 
Loc | Ops | Rwys | IFR | FBO | Links
Com | Nav | Svcs | Stats | Notes
Area around KMQJ (Indianapolis Regional Airport)
 
Road maps at: MapQuest Bing Google
 
Aerial photo
WARNING: Photo may not be current or correct
Aerial photo of KMQJ (Indianapolis Regional Airport)
Photo courtesy of Above All Ohio
www.aboveallohio.com
Taken early April 2007
looking NNW

Do you have a better or more recent aerial photo of Indianapolis Regional Airport that you would like to share? If so, please send us your photo.

 
Sectional chart

 
Airport diagram
CAUTION: Diagram may not be current
Diagram of KMQJ (Indianapolis Regional Airport)
 
Airport distance calculator
Flying to Indianapolis Regional Airport? Find the distance to fly.

From to KMQJ

Sunrise and sunset
Times for 03-Dec-2022
 Local
(UTC-5)
 Zulu
(UTC)
Morning civil twilight07:1912:19
Sunrise07:4912:49
Sunset17:1822:18
Evening civil twilight17:4822:48

Current date and time
Zulu (UTC)  03-Dec-2022 16:07:45
Local (UTC-5)  03-Dec-2022 11:07:45
 
METAR
KMQJ 031555Z AUTO 28016G21KT 10SM CLR 01/M05 A3031 RMK AO1
KUMP 
9nm NW 
031555Z AUTO 31009G17KT 10SM CLR 01/M04 A3033 RMK AO2 T00071036
KHFY 
16nm SW 
031555Z AUTO 30009G20KT 10SM CLR 02/M04 A3032 RMK AO2 T00201042
KGEZ 
16nm S 
031553Z AUTO 28014KT 10SM CLR 03/M04 A3030 RMK AO2 PK WND 30027/1459 SLP264 T00331044
KEYE 
19nm W 
031553Z AUTO 29012G22KT 10SM CLR 01/M06 A3032 RMK AO2 PK WND 28029/1502 SLP273 T00061056 $
KIND 
19nm SW 
031554Z 29018G26KT 10SM CLR 01/M07 A3033 RMK AO2 PK WND 29027/1530 SLP276 T00111067
KTYQ 
20nm NW 
031555Z AUTO 30012G23KT 10SM CLR M01/M06 A3032 RMK AO2 T10141064
TAF
KIND 
19nm SW 
031127Z 0312/0418 30018G32KT P6SM SCT040 TEMPO 0312/0313 OVC015 FM031500 31015G27KT P6SM FEW250 FM032200 30009KT P6SM FEW250 FM040800 VRB04KT P6SM BKN250
NOTAMs
Click for the latest NOTAMs
NOTAMs are issued by the DoD/FAA and will open in a separate window not controlled by AirNav.

 

 
 

FBO, Fuel Providers, and Aircraft Ground Support

  
 Business Name 
 
 Contact 
 
 Services / Description 
 
Fuel Prices
 
Comments
  
Jet Access - Indianapolis UNICOM 122.975
317-335-3371
[web site]
[email]
We know maximizing your time on the ground is important. Jet Access Indianapolis is conveniently located less than 20 minutes from downtown Indianapolis and less than 15 minutes to the Fishers/Geist area. Let our concierge team coordinate everything you need to make the most of your trip to Indianapolis.

-Fuel Volume Discounts
- Contract Fuel
- After-hours Available
- Courtesy Vehicles
- Rental Cars On-Site
- Hangar Space Available
- Aircraft Sales
- 135 Charter
- Less than 20 minutes from Downtown Indy
- Call for Customized Fuel Pricing
More info and photos of Jet Access - Indianapolis
 
NATA Safety 1st   Titan Rewards   Courtesy car   Avis  
 
Titan
100LL Jet A
FS $7.29 $7.19 
 Updated 21-Nov-2022
 
   3 read write
FS=Full service
Update Fuel Prices
 

Would you like to see your business listed on this page?

 If your business provides an interesting product or service to pilots, flight crews, aircraft, or users of the Indianapolis Regional Airport, you should consider listing it here.  To start the listing process, click on the button below
 
Add a business
 

Other Pages about Indianapolis Regional Airport

www.indianapolisairport.com/...
 
Update a link
 
Copyright © AirNav, LLC. All rights reserved. Privacy Policy  Contact